map of SFN home
SFN - Airport
Location
City:  Santa F, Santa Fe, Argentina
Name:Sauce Viejo Airport
ICAO:SAAV
IATA:SFN

Details
Type:Airport (Aerodrome, Airfield)
Latitude:3142'42"S (-31.711665)
Longitude:6048'42"W (-60.811667)
Datum:WGS 1984
Elevation:56 ft (17 m)
Variation:8.50W (WMM2015 magnetic declination)
-0.18 annual change
Runways:1
Longest:7628 × 98 ft (2325 × 30 m), paved

Time
Time Zone:UTC-3
Local Time:

Weather
METAR:SAAV 191949Z 18020KT 8000 TSDS SCT035 FEW040CB OVC050 29/20 Q1001

Related Locations
Nearby:
Farthest:NKG: 12426 mi / 19997 km
Nanjing [Nanjing Lukou Intl], 32, CN

Find:

   beyond  
but within

Other Information
Maps:
NOTAMs:
Links:
Sources:

  
flag of Argentina   

Sectional Chart

Flight Planning
at skyvector.com

Satellite Image

Google Maps Satellite view

 

Copyright © 2004-2018 Karl L. Swartz. All rights reserved.
The Great Circle Mapper name and logo are trademarks of the Great Circle Mapper.
All other trademarks mentioned herein belong to their respective owners.
Please see credits for attibutions and further copyright information.

  Follow gcmap on Facebook Follow gcmap on Twitter Follow gcmap on Google+ GCmap on LinkedIn

hCard Microformat

Geo Microformat